Time,TemperatureF,DewpointF,PressureIn,WindDirection,WindDirectionDegrees,WindSpeedMPH,WindSpeedGustMPH,Humidity,HourlyPrecipIn,Conditions,Clouds,dailyrainin,SoftwareType,DateUTC
2013-12-13 00:00:00,13.5,8.4,30.02,SW,225,0.0,0.0,80,0.00,CLR,,0.00,WeatherDisplay:10.37,2013-12-13 05:00:00,
2013-12-13 00:01:00,13.6,8.6,30.02,SW,225,0.0,0.0,80,0.00,CLR,,0.00,WeatherDisplay:10.37,2013-12-13 05:01:00,
2013-12-13 00:02:00,13.6,8.6,30.02,SW,225,0.0,0.0,80,0.00,CLR,,0.00,WeatherDisplay:10.37,2013-12-13 05:02:00,
2013-12-13 00:03:00,13.6,8.6,30.02,SW,225,0.0,0.0,80,0.00,CLR,,0.00,WeatherDisplay:10.37,2013-12-13 05:03:00,
2013-12-13 00:08:00,13.6,8.6,30.02,SW,225,0.0,0.0,80,0.00,CLR,,0.00,WeatherDisplay:10.37,2013-12-13 05:08:00,
2013-12-13 00:13:00,13.8,8.8,30.01,SW,225,0.0,0.0,80,0.00,CLR,,0.00,WeatherDisplay:10.37,2013-12-13 05:13:00,
2013-12-13 00:18:00,13.8,8.8,30.00,SSE,158,0.0,0.0,80,0.00,CLR,,0.00,WeatherDisplay:10.37,2013-12-13 05:18:00,
2013-12-13 00:23:00,14.0,9.0,30.00,SSE,158,0.0,0.0,80,0.00,CLR,,0.00,WeatherDisplay:10.37,2013-12-13 05:23:00,
2013-12-13 00:28:00,14.0,9.0,30.00,SSE,158,0.0,0.0,80,0.00,CLR,,0.00,WeatherDisplay:10.37,2013-12-13 05:28:00,
2013-12-13 00:33:00,14.2,9.1,30.00,SSE,158,0.0,0.0,80,0.00,CLR,,0.00,WeatherDisplay:10.37,2013-12-13 05:33:00,
2013-12-13 00:38:00,14.4,9.3,29.99,SSE,158,0.0,0.0,80,0.00,CLR,,0.00,WeatherDisplay:10.37,2013-12-13 05:38:00,
2013-12-13 00:43:00,14.4,9.3,29.99,SSE,158,0.0,0.0,80,0.00,CLR,,0.00,WeatherDisplay:10.37,2013-12-13 05:43:00,
2013-12-13 00:48:00,14.4,9.3,29.99,SSE,158,0.0,0.0,80,0.00,CLR,,0.00,WeatherDisplay:10.37,2013-12-13 05:48:00,
2013-12-13 00:53:00,14.7,9.7,29.99,SSE,158,0.0,0.0,80,0.00,CLR,,0.00,WeatherDisplay:10.37,2013-12-13 05:53:00,
2013-12-13 00:58:00,14.7,9.7,29.99,SSE,158,0.0,0.0,80,0.00,CLR,,0.00,WeatherDisplay:10.37,2013-12-13 05:58:00,
2013-12-13 01:03:00,14.7,9.7,29.98,SSE,158,0.0,0.0,80,0.00,CLR,,0.00,WeatherDisplay:10.37,2013-12-13 06:03:00,
2013-12-13 01:08:00,14.9,9.8,29.98,SSE,158,0.0,0.0,80,0.00,CLR,,0.00,WeatherDisplay:10.37,2013-12-13 06:08:00,
2013-12-13 01:13:00,15.3,10.2,29.98,SSE,158,0.2,0.2,80,0.00,CLR,,0.00,WeatherDisplay:10.37,2013-12-13 06:13:00,
2013-12-13 01:18:00,15.4,10.4,29.98,SSE,158,0.0,0.0,80,0.00,CLR,,0.00,WeatherDisplay:10.37,2013-12-13 06:18:00,
2013-12-13 01:23:00,15.8,10.7,29.98,SSE,158,0.0,0.0,80,0.00,CLR,,0.00,WeatherDisplay:10.37,2013-12-13 06:23:00,
2013-12-13 01:28:00,16.2,11.1,29.98,SSE,158,0.0,0.0,80,0.00,CLR,,0.00,WeatherDisplay:10.37,2013-12-13 06:28:00,
2013-12-13 01:33:00,16.5,11.4,29.98,ESE,112,0.0,0.0,80,0.00,CLR,,0.00,WeatherDisplay:10.37,2013-12-13 06:33:00,
2013-12-13 01:38:00,16.9,11.8,29.97,WSW,248,0.2,0.2,80,0.00,CLR,,0.00,WeatherDisplay:10.37,2013-12-13 06:38:00,
2013-12-13 01:43:00,16.9,11.8,29.97,WSW,248,0.0,0.2,80,0.00,CLR,,0.00,WeatherDisplay:10.37,2013-12-13 06:43:00,
2013-12-13 01:48:00,17.2,12.1,29.97,WNW,292,0.2,0.0,80,0.00,CLR,,0.00,WeatherDisplay:10.37,2013-12-13 06:48:00,
2013-12-13 01:53:00,17.6,12.5,29.97,SSW,202,0.0,0.0,80,0.00,CLR,,0.00,WeatherDisplay:10.37,2013-12-13 06:53:00,
2013-12-13 01:58:00,18.0,12.8,29.97,WNW,292,0.2,0.2,80,0.00,CLR,,0.00,WeatherDisplay:10.37,2013-12-13 06:58:00,
2013-12-13 02:03:00,18.5,13.6,29.97,West,270,0.5,1.2,81,0.00,CLR,,0.00,WeatherDisplay:10.37,2013-12-13 07:03:00,
2013-12-13 02:08:00,19.0,13.9,29.96,WSW,248,0.0,0.0,80,0.00,CLR,,0.00,WeatherDisplay:10.37,2013-12-13 07:08:00,
2013-12-13 02:12:00,19.4,13.9,29.96,NNW,338,0.5,0.5,79,0.00,CLR,,0.00,WeatherDisplay:10.37,2013-12-13 07:12:00,
2013-12-13 02:17:00,19.8,14.0,29.96,NW,315,0.0,1.2,78,0.00,CLR,,0.00,WeatherDisplay:10.37,2013-12-13 07:17:00,
2013-12-13 02:23:00,20.1,14.4,29.96,WNW,292,0.9,1.2,78,0.00,CLR,,0.00,WeatherDisplay:10.37,2013-12-13 07:23:00,
2013-12-13 02:27:00,20.5,14.7,29.96,SE,135,0.2,0.2,78,0.00,CLR,,0.00,WeatherDisplay:10.37,2013-12-13 07:27:00,
2013-12-13 02:32:00,20.7,14.6,29.96,WNW,292,0.7,2.3,77,0.00,CLR,,0.00,WeatherDisplay:10.37,2013-12-13 07:32:00,
2013-12-13 02:37:00,21.0,14.9,29.96,SW,225,0.0,2.3,77,0.00,CLR,,0.00,WeatherDisplay:10.37,2013-12-13 07:37:00,
2013-12-13 02:42:00,21.2,15.1,29.96,WSW,248,0.2,0.2,77,0.00,CLR,,0.00,WeatherDisplay:10.37,2013-12-13 07:42:00,
2013-12-13 02:47:00,21.4,15.3,29.96,SW,225,0.2,1.2,77,0.00,CLR,,0.00,WeatherDisplay:10.37,2013-12-13 07:47:00,
2013-12-13 02:52:00,21.6,15.2,29.96,WNW,292,0.2,0.0,76,0.00,CLR,,0.00,WeatherDisplay:10.37,2013-12-13 07:52:00,
2013-12-13 02:57:00,21.6,14.9,29.96,SSE,158,0.0,0.0,75,0.00,CLR,,0.00,WeatherDisplay:10.37,2013-12-13 07:57:00,
2013-12-13 03:02:00,21.6,14.6,29.96,SSW,202,0.9,1.2,74,0.00,CLR,,0.00,WeatherDisplay:10.37,2013-12-13 08:02:00,
2013-12-13 03:07:00,21.6,14.9,29.96,SSW,202,0.5,0.5,75,0.00,CLR,,0.00,WeatherDisplay:10.37,2013-12-13 08:07:00,
2013-12-13 03:12:00,21.4,14.4,29.95,WNW,292,0.0,1.2,74,0.00,CLR,,0.00,WeatherDisplay:10.37,2013-12-13 08:12:00,
2013-12-13 03:17:00,21.2,14.2,29.95,SSW,202,0.9,0.0,74,0.00,CLR,,0.00,WeatherDisplay:10.37,2013-12-13 08:17:00,
2013-12-13 03:22:00,21.2,14.2,29.95,WNW,292,1.2,1.2,74,0.00,CLR,,0.00,WeatherDisplay:10.37,2013-12-13 08:22:00,
2013-12-13 03:27:00,21.0,14.0,29.95,SW,225,0.0,0.0,74,0.00,CLR,,0.00,WeatherDisplay:10.37,2013-12-13 08:27:00,
2013-12-13 03:32:00,20.8,13.9,29.95,WSW,248,0.5,1.2,74,0.00,CLR,,0.00,WeatherDisplay:10.37,2013-12-13 08:32:00,
2013-12-13 03:37:00,20.7,13.4,29.95,SW,225,0.5,2.3,73,0.00,CLR,,0.00,WeatherDisplay:10.37,2013-12-13 08:37:00,
2013-12-13 03:42:00,20.7,13.4,29.95,SW,225,0.0,0.0,73,0.00,CLR,,0.00,WeatherDisplay:10.37,2013-12-13 08:42:00,
2013-12-13 03:47:00,20.7,13.4,29.94,WSW,248,0.5,1.2,73,0.00,CLR,,0.00,WeatherDisplay:10.37,2013-12-13 08:47:00,
2013-12-13 03:52:00,20.5,13.2,29.94,SSW,202,0.0,0.0,73,0.00,CLR,,0.00,WeatherDisplay:10.37,2013-12-13 08:52:00,
2013-12-13 03:57:00,20.5,13.2,29.94,SW,225,0.0,0.0,73,0.00,CLR,,0.00,WeatherDisplay:10.37,2013-12-13 08:57:00,
2013-12-13 04:02:00,20.1,12.8,29.94,SSW,202,0.0,0.0,73,0.00,CLR,,0.00,WeatherDisplay:10.37,2013-12-13 09:02:00,
2013-12-13 04:07:00,20.1,12.8,29.94,SW,225,0.0,0.0,73,0.00,CLR,,0.00,WeatherDisplay:10.37,2013-12-13 09:07:00,
2013-12-13 04:12:00,19.9,12.7,29.94,SSW,202,0.0,0.0,73,0.00,CLR,,0.00,WeatherDisplay:10.37,2013-12-13 09:12:00,
2013-12-13 04:17:00,19.8,12.5,29.94,SW,225,0.0,0.0,73,0.00,CLR,,0.00,WeatherDisplay:10.37,2013-12-13 09:17:00,
2013-12-13 04:22:00,19.8,12.5,29.94,NNE,22,0.0,0.0,73,0.00,CLR,,0.00,WeatherDisplay:10.37,2013-12-13 09:22:00,
2013-12-13 04:27:00,19.6,12.6,29.94,West,270,0.0,0.0,74,0.00,CLR,,0.00,WeatherDisplay:10.37,2013-12-13 09:27:00,
2013-12-13 04:32:00,19.6,12.6,29.94,SSW,202,0.0,0.0,74,0.00,CLR,,0.00,WeatherDisplay:10.37,2013-12-13 09:32:00,
2013-12-13 04:37:00,19.4,12.5,29.94,SSW,202,0.2,1.2,74,0.00,CLR,,0.00,WeatherDisplay:10.37,2013-12-13 09:37:00,
2013-12-13 04:42:00,19.4,12.5,29.94,SW,225,0.5,0.5,74,0.00,CLR,,0.00,WeatherDisplay:10.37,2013-12-13 09:42:00,
2013-12-13 04:47:00,19.4,12.5,29.94,WNW,292,0.2,0.2,74,0.00,CLR,,0.00,WeatherDisplay:10.37,2013-12-13 09:47:00,
2013-12-13 04:52:00,19.4,12.5,29.94,SW,225,0.7,0.7,74,0.00,CLR,,0.00,WeatherDisplay:10.37,2013-12-13 09:52:00,
2013-12-13 04:57:00,19.4,12.5,29.95,West,270,0.2,0.0,74,0.00,CLR,,0.00,WeatherDisplay:10.37,2013-12-13 09:57:00,
2013-12-13 05:02:00,19.6,12.6,29.94,NW,315,0.5,0.5,74,0.00,CLR,,0.00,WeatherDisplay:10.37,2013-12-13 10:02:00,
2013-12-13 05:07:00,19.6,12.6,29.94,WNW,292,0.2,2.3,74,0.00,CLR,,0.00,WeatherDisplay:10.37,2013-12-13 10:07:00,
2013-12-13 05:12:00,19.6,12.6,29.94,NNW,338,0.0,1.2,74,0.00,CLR,,0.00,WeatherDisplay:10.37,2013-12-13 10:12:00,
2013-12-13 05:18:00,19.6,12.6,29.95,SW,225,0.5,2.3,74,0.00,CLR,,0.00,WeatherDisplay:10.37,2013-12-13 10:18:00,
2013-12-13 05:23:00,19.8,12.8,29.95,South,180,0.0,1.2,74,0.00,CLR,,0.00,WeatherDisplay:10.37,2013-12-13 10:23:00,
2013-12-13 05:28:00,19.6,12.6,29.95,WSW,248,0.0,0.0,74,0.00,CLR,,0.00,WeatherDisplay:10.37,2013-12-13 10:28:00,
2013-12-13 05:33:00,19.4,12.5,29.95,SW,225,0.2,1.2,74,0.00,CLR,,0.00,WeatherDisplay:10.37,2013-12-13 10:33:00,
2013-12-13 05:38:00,19.2,12.3,29.95,West,270,0.0,1.2,74,0.00,CLR,,0.00,WeatherDisplay:10.37,2013-12-13 10:38:00,
2013-12-13 05:43:00,19.4,12.5,29.96,SW,225,0.0,2.3,74,0.00,CLR,,0.00,WeatherDisplay:10.37,2013-12-13 10:43:00,
2013-12-13 05:48:00,19.4,12.5,29.96,NW,315,0.2,1.2,74,0.00,CLR,,0.00,WeatherDisplay:10.37,2013-12-13 10:48:00,
2013-12-13 05:53:00,19.4,12.5,29.96,SW,225,0.0,0.2,74,0.00,CLR,,0.00,WeatherDisplay:10.37,2013-12-13 10:53:00,
2013-12-13 05:58:00,19.6,12.6,29.96,NW,315,0.0,1.2,74,0.00,CLR,,0.00,WeatherDisplay:10.37,2013-12-13 10:58:00,
2013-12-13 06:03:00,19.8,12.8,29.96,SW,225,0.0,0.0,74,0.00,CLR,,0.00,WeatherDisplay:10.37,2013-12-13 11:03:00,
2013-12-13 06:08:00,19.8,12.8,29.97,SSW,202,0.0,0.0,74,0.00,CLR,,0.00,WeatherDisplay:10.37,2013-12-13 11:08:00,
2013-12-13 06:13:00,19.8,12.8,29.97,SW,225,0.2,0.0,74,0.00,CLR,,0.00,WeatherDisplay:10.37,2013-12-13 11:13:00,
2013-12-13 06:18:00,19.8,12.8,29.97,SSW,202,1.4,1.4,74,0.00,CLR,,0.00,WeatherDisplay:10.37,2013-12-13 11:18:00,
2013-12-13 06:23:00,19.8,12.8,29.97,WNW,292,1.2,1.2,74,0.00,CLR,,0.00,WeatherDisplay:10.37,2013-12-13 11:23:00,
2013-12-13 06:28:00,19.9,13.0,29.97,NE,45,0.2,1.2,74,0.00,CLR,,0.00,WeatherDisplay:10.37,2013-12-13 11:28:00,
2013-12-13 06:33:00,20.1,13.2,29.97,NW,315,0.0,1.2,74,0.00,CLR,,0.00,WeatherDisplay:10.37,2013-12-13 11:33:00,
2013-12-13 06:38:00,20.3,13.3,29.97,WSW,248,0.2,1.2,74,0.00,CLR,,0.00,WeatherDisplay:10.37,2013-12-13 11:38:00,
2013-12-13 06:43:00,20.3,13.0,29.97,SSW,202,0.5,0.5,73,0.00,CLR,,0.00,WeatherDisplay:10.37,2013-12-13 11:43:00,
2013-12-13 06:48:00,20.3,13.0,29.97,West,270,0.5,1.2,73,0.00,CLR,,0.00,WeatherDisplay:10.37,2013-12-13 11:48:00,
2013-12-13 06:53:00,20.5,13.5,29.97,SSW,202,1.8,2.3,74,0.00,CLR,,0.00,WeatherDisplay:10.37,2013-12-13 11:53:00,
2013-12-13 06:58:00,20.5,13.2,29.98,North,0,0.2,2.3,73,0.00,CLR,,0.00,WeatherDisplay:10.37,2013-12-13 11:58:00,
2013-12-13 07:03:00,20.5,13.2,29.97,SSW,202,1.2,1.2,73,0.00,CLR,,0.00,WeatherDisplay:10.37,2013-12-13 12:03:00,
2013-12-13 07:08:00,20.7,13.4,29.97,SSW,202,0.5,0.0,73,0.00,CLR,,0.00,WeatherDisplay:10.37,2013-12-13 12:08:00,
2013-12-13 07:13:00,20.7,13.4,29.97,WSW,248,2.2,2.3,73,0.00,CLR,,0.00,WeatherDisplay:10.37,2013-12-13 12:13:00,
2013-12-13 07:18:00,21.0,13.7,29.97,SW,225,0.2,1.2,73,0.00,CLR,,0.00,WeatherDisplay:10.37,2013-12-13 12:18:00,
2013-12-13 07:23:00,21.2,13.9,29.96,SSW,202,0.2,1.2,73,0.00,CLR,,0.00,WeatherDisplay:10.37,2013-12-13 12:23:00,
2013-12-13 07:24:00,21.2,13.9,29.97,South,180,0.7,0.7,73,0.00,CLR,,0.00,WeatherDisplay:10.37,2013-12-13 12:24:00,
2013-12-13 07:29:00,21.6,14.2,29.98,North,0,0.9,2.3,73,0.00,CLR,,0.00,WeatherDisplay:10.37,2013-12-13 12:29:00,
2013-12-13 07:34:00,21.7,14.4,29.98,South,180,0.2,0.2,73,0.00,CLR,,0.00,WeatherDisplay:10.37,2013-12-13 12:34:00,
2013-12-13 07:39:00,22.1,14.4,29.98,SSW,202,0.9,2.3,72,0.00,CLR,,0.00,WeatherDisplay:10.37,2013-12-13 12:39:00,
2013-12-13 07:44:00,22.5,14.8,29.98,SW,225,4.7,4.7,72,0.00,CLR,,0.00,WeatherDisplay:10.37,2013-12-13 12:44:00,
2013-12-13 07:49:00,22.8,15.1,29.98,WNW,292,0.5,1.2,72,0.00,CLR,,0.00,WeatherDisplay:10.37,2013-12-13 12:49:00,
2013-12-13 07:54:00,23.2,15.5,29.98,WNW,292,0.5,0.0,72,0.00,CLR,,0.00,WeatherDisplay:10.37,2013-12-13 12:54:00,
2013-12-13 07:59:00,23.7,16.0,29.98,SSW,202,0.5,2.3,72,0.00,CLR,,0.00,WeatherDisplay:10.37,2013-12-13 12:59:00,
2013-12-13 08:04:00,24.1,16.4,29.98,SSW,202,0.0,0.2,72,0.00,CLR,,0.00,WeatherDisplay:10.37,2013-12-13 13:04:00,
2013-12-13 08:09:00,24.6,16.9,29.98,NW,315,2.9,2.9,72,0.00,CLR,,0.00,WeatherDisplay:10.37,2013-12-13 13:09:00,
2013-12-13 08:14:00,25.0,17.2,29.98,WSW,248,3.3,3.5,72,0.00,CLR,,0.00,WeatherDisplay:10.37,2013-12-13 13:14:00,
2013-12-13 08:19:00,25.3,16.9,29.98,WNW,292,2.4,2.4,70,0.00,CLR,,0.00,WeatherDisplay:10.37,2013-12-13 13:19:00,
2013-12-13 08:24:00,25.3,16.2,29.98,West,270,0.5,3.5,68,0.00,CLR,,0.00,WeatherDisplay:10.37,2013-12-13 13:24:00,
2013-12-13 08:29:00,25.5,16.4,29.98,NNW,338,0.5,4.6,68,0.00,CLR,,0.00,WeatherDisplay:10.37,2013-12-13 13:29:00,
2013-12-13 08:34:00,25.9,16.8,29.99,West,270,0.5,1.2,68,0.00,CLR,,0.00,WeatherDisplay:10.37,2013-12-13 13:34:00,
2013-12-13 08:39:00,25.9,16.8,29.99,WSW,248,1.2,2.3,68,0.00,CLR,,0.00,WeatherDisplay:10.37,2013-12-13 13:39:00,
2013-12-13 08:44:00,26.2,16.8,29.99,SE,135,0.5,3.5,67,0.00,CLR,,0.00,WeatherDisplay:10.37,2013-12-13 13:44:00,
2013-12-13 08:49:00,26.2,16.4,29.99,NNW,338,0.2,0.0,66,0.00,CLR,,0.00,WeatherDisplay:10.37,2013-12-13 13:49:00,
2013-12-13 08:54:00,26.6,17.5,29.99,SW,225,1.4,1.4,68,0.00,CLR,,0.00,WeatherDisplay:10.37,2013-12-13 13:54:00,
2013-12-13 08:59:00,27.0,18.1,29.99,WNW,292,1.2,1.2,69,0.00,CLR,,0.00,WeatherDisplay:10.37,2013-12-13 13:59:00,
2013-12-13 09:04:00,27.3,18.5,29.99,WSW,248,1.2,1.2,69,0.00,CLR,,0.00,WeatherDisplay:10.37,2013-12-13 14:04:00,
2013-12-13 09:09:00,27.7,17.8,29.99,SW,225,1.8,1.8,66,0.00,CLR,,0.00,WeatherDisplay:10.37,2013-12-13 14:09:00,
2013-12-13 09:14:00,28.0,19.5,29.99,SSW,202,0.9,1.2,70,0.00,CLR,,0.00,WeatherDisplay:10.37,2013-12-13 14:14:00,
2013-12-13 09:19:00,28.4,18.8,30.00,ESE,112,0.2,2.3,67,0.00,CLR,,0.00,WeatherDisplay:10.37,2013-12-13 14:19:00,
2013-12-13 09:24:00,28.4,18.8,30.00,SW,225,2.2,2.3,67,0.00,CLR,,0.00,WeatherDisplay:10.37,2013-12-13 14:24:00,
2013-12-13 09:29:00,28.4,17.8,30.00,WSW,248,2.2,5.8,64,0.00,CLR,,0.00,WeatherDisplay:10.37,2013-12-13 14:29:00,
2013-12-13 09:34:00,28.2,17.6,30.00,West,270,1.2,1.2,64,0.00,CLR,,0.00,WeatherDisplay:10.37,2013-12-13 14:34:00,
2013-12-13 09:39:00,28.4,17.8,29.99,NW,315,2.0,3.5,64,0.00,CLR,,0.00,WeatherDisplay:10.37,2013-12-13 14:39:00,
2013-12-13 09:44:00,28.4,17.4,29.99,WSW,248,3.1,3.1,63,0.00,CLR,,0.00,WeatherDisplay:10.37,2013-12-13 14:44:00,
2013-12-13 09:49:00,28.8,17.4,30.00,SSW,202,0.9,2.3,62,0.00,CLR,,0.00,WeatherDisplay:10.37,2013-12-13 14:49:00,
2013-12-13 09:54:00,29.1,17.7,30.00,SSW,202,0.5,2.3,62,0.00,CLR,,0.00,WeatherDisplay:10.37,2013-12-13 14:54:00,
2013-12-13 09:59:00,29.3,17.9,30.00,NW,315,1.2,2.3,62,0.00,CLR,,0.00,WeatherDisplay:10.37,2013-12-13 14:59:00,
2013-12-13 10:04:00,29.8,18.0,30.00,SW,225,1.8,2.3,61,0.00,CLR,,0.00,WeatherDisplay:10.37,2013-12-13 15:04:00,
2013-12-13 10:09:00,30.0,18.6,30.00,WSW,248,1.2,3.5,62,0.00,CLR,,0.00,WeatherDisplay:10.37,2013-12-13 15:09:00,
2013-12-13 10:14:00,30.2,17.6,29.99,NW,315,1.2,3.5,59,0.00,CLR,,0.00,WeatherDisplay:10.37,2013-12-13 15:14:00,
2013-12-13 10:19:00,30.4,18.1,29.99,NW,315,1.2,2.3,60,0.00,CLR,,0.00,WeatherDisplay:10.37,2013-12-13 15:19:00,
2013-12-13 10:24:00,30.4,17.4,29.99,SE,135,1.2,2.3,58,0.00,CLR,,0.00,WeatherDisplay:10.37,2013-12-13 15:24:00,
2013-12-13 10:29:00,30.6,17.5,29.99,NW,315,1.8,6.9,58,0.00,CLR,,0.00,WeatherDisplay:10.37,2013-12-13 15:29:00,
2013-12-13 10:34:00,30.6,17.5,29.99,SSW,202,1.6,1.6,58,0.00,CLR,,0.00,WeatherDisplay:10.37,2013-12-13 15:34:00,
2013-12-13 10:39:00,30.7,16.9,29.99,West,270,1.8,2.3,56,0.00,CLR,,0.00,WeatherDisplay:10.37,2013-12-13 15:39:00,
2013-12-13 10:44:00,30.9,17.5,29.99,NW,315,2.9,4.6,57,0.00,CLR,,0.00,WeatherDisplay:10.37,2013-12-13 15:44:00,
2013-12-13 10:49:00,31.1,17.2,29.98,SSW,202,8.5,8.5,56,0.00,CLR,,0.00,WeatherDisplay:10.37,2013-12-13 15:49:00,
2013-12-13 10:54:00,31.3,17.0,29.98,SW,225,1.2,5.8,55,0.00,CLR,,0.00,WeatherDisplay:10.37,2013-12-13 15:54:00,
2013-12-13 10:59:00,31.1,16.4,29.98,WSW,248,2.2,2.3,54,0.00,CLR,,0.00,WeatherDisplay:10.37,2013-12-13 15:59:00,
2013-12-13 11:04:00,31.3,17.0,29.98,West,270,2.6,3.5,55,0.00,CLR,,0.00,WeatherDisplay:10.37,2013-12-13 16:04:00,
2013-12-13 11:09:00,31.5,17.1,29.98,SW,225,1.8,5.8,55,0.00,CLR,,0.00,WeatherDisplay:10.37,2013-12-13 16:09:00,
2013-12-13 11:14:00,31.5,17.1,29.97,SSW,202,1.4,1.4,55,0.00,CLR,,0.00,WeatherDisplay:10.37,2013-12-13 16:14:00,
2013-12-13 11:19:00,31.5,16.7,29.97,WNW,292,3.8,3.8,54,0.00,CLR,,0.00,WeatherDisplay:10.37,2013-12-13 16:19:00,
2013-12-13 11:24:00,31.6,16.9,29.97,South,180,1.2,4.6,54,0.00,CLR,,0.00,WeatherDisplay:10.37,2013-12-13 16:24:00,
2013-12-13 11:29:00,31.8,17.5,29.97,WSW,248,2.4,2.4,55,0.00,CLR,,0.00,WeatherDisplay:10.37,2013-12-13 16:29:00,
2013-12-13 11:34:00,32.0,18.1,29.97,NNW,338,1.2,2.3,56,0.00,CLR,,0.00,WeatherDisplay:10.37,2013-12-13 16:34:00,
2013-12-13 11:39:00,32.2,17.4,29.97,NW,315,1.2,2.3,54,0.00,CLR,,0.00,WeatherDisplay:10.37,2013-12-13 16:39:00,
2013-12-13 11:44:00,32.4,17.6,29.96,SSW,202,0.5,2.3,54,0.00,CLR,,0.00,WeatherDisplay:10.37,2013-12-13 16:44:00,
2013-12-13 11:49:00,32.7,18.3,29.96,SW,225,0.5,3.5,55,0.00,CLR,,0.00,WeatherDisplay:10.37,2013-12-13 16:49:00,
2013-12-13 11:54:00,32.9,17.6,29.96,WSW,248,1.8,2.3,53,0.00,CLR,,0.00,WeatherDisplay:10.37,2013-12-13 16:54:00,
2013-12-13 11:59:00,32.7,16.6,29.96,NW,315,0.9,2.3,51,0.01,RA,,0.01,WeatherDisplay:10.37,2013-12-13 16:59:00,
2013-12-13 12:04:00,33.1,17.3,29.96,NW,315,3.3,6.9,52,0.01,RA,,0.01,WeatherDisplay:10.37,2013-12-13 17:04:00,
2013-12-13 12:09:00,33.1,16.9,29.96,West,270,1.6,2.3,51,0.01,CLR,,0.01,WeatherDisplay:10.37,2013-12-13 17:09:00,
2013-12-13 12:14:00,33.3,17.1,29.96,SW,225,1.6,2.3,51,0.01,CLR,,0.01,WeatherDisplay:10.37,2013-12-13 17:14:00,
2013-12-13 12:19:00,33.3,16.1,29.96,NW,315,3.1,4.6,49,0.01,CLR,,0.01,WeatherDisplay:10.37,2013-12-13 17:19:00,
2013-12-13 12:24:00,33.1,16.4,29.95,SW,225,0.9,2.3,50,0.01,CLR,,0.01,WeatherDisplay:10.37,2013-12-13 17:24:00,
2013-12-13 12:29:00,32.9,16.3,29.96,NNW,338,0.7,1.2,50,0.01,CLR,,0.01,WeatherDisplay:10.37,2013-12-13 17:29:00,
2013-12-13 12:34:00,33.1,16.4,29.95,SW,225,1.2,2.3,50,0.01,CLR,,0.01,WeatherDisplay:10.37,2013-12-13 17:34:00,
2013-12-13 12:39:00,33.3,17.1,29.95,NW,315,1.2,3.5,51,0.01,CLR,,0.01,WeatherDisplay:10.37,2013-12-13 17:39:00,
2013-12-13 12:44:00,33.4,16.3,29.95,West,270,0.9,2.3,49,0.01,CLR,,0.01,WeatherDisplay:10.37,2013-12-13 17:44:00,
2013-12-13 12:49:00,33.4,16.3,29.95,West,270,1.8,4.6,49,0.01,CLR,,0.01,WeatherDisplay:10.37,2013-12-13 17:49:00,
2013-12-13 12:54:00,33.3,16.6,29.96,WSW,248,1.8,3.5,50,0.01,CLR,,0.01,WeatherDisplay:10.37,2013-12-13 17:54:00,
2013-12-13 12:59:00,33.4,16.8,29.96,WSW,248,2.4,2.4,50,0.00,CLR,,0.01,WeatherDisplay:10.37,2013-12-13 17:59:00,
2013-12-13 13:04:00,33.8,17.6,29.96,West,270,1.8,3.5,51,0.00,CLR,,0.01,WeatherDisplay:10.37,2013-12-13 18:04:00,
2013-12-13 13:09:00,34.2,17.9,29.96,SSW,202,2.6,2.6,51,0.00,CLR,,0.01,WeatherDisplay:10.37,2013-12-13 18:09:00,
2013-12-13 13:14:00,34.2,17.4,29.96,North,0,2.4,2.4,50,0.00,CLR,,0.01,WeatherDisplay:10.37,2013-12-13 18:14:00,
2013-12-13 13:19:00,34.0,16.3,29.96,WNW,292,3.3,3.3,48,0.00,CLR,,0.01,WeatherDisplay:10.37,2013-12-13 18:19:00,
2013-12-13 13:24:00,33.6,16.0,29.95,WSW,248,1.8,2.3,48,0.00,CLR,,0.01,WeatherDisplay:10.37,2013-12-13 18:24:00,
2013-12-13 13:29:00,33.6,16.9,29.96,SSW,202,2.2,2.3,50,0.00,CLR,,0.01,WeatherDisplay:10.37,2013-12-13 18:29:00,
2013-12-13 13:34:00,34.0,16.3,29.96,West,270,1.8,2.3,48,0.00,CLR,,0.01,WeatherDisplay:10.37,2013-12-13 18:34:00,
2013-12-13 13:39:00,34.0,15.8,29.96,West,270,1.4,4.6,47,0.00,CLR,,0.01,WeatherDisplay:10.37,2013-12-13 18:39:00,
2013-12-13 13:44:00,34.0,16.8,29.96,NNW,338,0.9,2.3,49,0.00,CLR,,0.01,WeatherDisplay:10.37,2013-12-13 18:44:00,
2013-12-13 13:49:00,34.0,17.3,29.96,WNW,292,0.5,4.6,50,0.00,CLR,,0.01,WeatherDisplay:10.37,2013-12-13 18:49:00,
2013-12-13 13:54:00,34.2,17.4,29.96,North,0,0.2,1.2,50,0.00,CLR,,0.01,WeatherDisplay:10.37,2013-12-13 18:54:00,
2013-12-13 13:59:00,33.8,16.2,29.97,WSW,248,3.3,3.5,48,0.00,CLR,,0.01,WeatherDisplay:10.37,2013-12-13 18:59:00,
2013-12-13 14:04:00,33.8,17.1,29.97,SSW,202,1.2,3.5,50,0.00,CLR,,0.01,WeatherDisplay:10.37,2013-12-13 19:04:00,
2013-12-13 14:09:00,33.6,16.5,29.97,South,180,0.5,1.2,49,0.00,CLR,,0.01,WeatherDisplay:10.37,2013-12-13 19:09:00,
2013-12-13 14:14:00,33.4,16.3,29.97,WNW,292,0.5,1.2,49,0.00,CLR,,0.01,WeatherDisplay:10.37,2013-12-13 19:14:00,
2013-12-13 14:19:00,33.4,16.8,29.97,NW,315,1.2,1.2,50,0.00,CLR,,0.01,WeatherDisplay:10.37,2013-12-13 19:19:00,
2013-12-13 14:24:00,33.3,16.1,29.97,SW,225,1.4,2.3,49,0.00,CLR,,0.01,WeatherDisplay:10.37,2013-12-13 19:24:00,
2013-12-13 14:29:00,33.1,16.4,29.97,SSW,202,0.9,1.2,50,0.00,CLR,,0.01,WeatherDisplay:10.37,2013-12-13 19:29:00,
2013-12-13 14:34:00,32.9,16.3,29.97,WSW,248,0.5,1.2,50,0.00,CLR,,0.01,WeatherDisplay:10.37,2013-12-13 19:34:00,
2013-12-13 14:39:00,32.7,16.6,29.97,South,180,0.7,2.3,51,0.00,CLR,,0.01,WeatherDisplay:10.37,2013-12-13 19:39:00,
2013-12-13 14:44:00,32.7,16.6,29.98,WNW,292,1.2,1.2,51,0.00,CLR,,0.01,WeatherDisplay:10.37,2013-12-13 19:44:00,
2013-12-13 14:49:00,32.7,17.5,29.98,SSW,202,0.5,0.0,53,0.00,CLR,,0.01,WeatherDisplay:10.37,2013-12-13 19:49:00,
2013-12-13 14:54:00,32.7,17.5,29.98,WNW,292,1.6,2.3,53,0.00,CLR,,0.01,WeatherDisplay:10.37,2013-12-13 19:54:00,
2013-12-13 14:59:00,32.4,16.2,29.99,NNW,338,0.9,4.6,51,0.00,CLR,,0.01,WeatherDisplay:10.37,2013-12-13 19:59:00,
2013-12-13 15:04:00,32.2,16.5,29.99,WSW,248,0.5,2.3,52,0.00,CLR,,0.01,WeatherDisplay:10.37,2013-12-13 20:04:00,
2013-12-13 15:09:00,32.0,16.3,29.99,NW,315,0.5,1.2,52,0.00,CLR,,0.01,WeatherDisplay:10.37,2013-12-13 20:09:00,
2013-12-13 15:14:00,31.6,15.1,30.00,NW,315,0.7,2.3,50,0.00,CLR,,0.01,WeatherDisplay:10.37,2013-12-13 20:14:00,
2013-12-13 15:19:00,31.6,15.6,30.00,WNW,292,1.6,2.3,51,0.00,CLR,,0.01,WeatherDisplay:10.37,2013-12-13 20:19:00,
2013-12-13 15:24:00,31.6,15.1,30.01,West,270,1.6,4.6,50,0.00,CLR,,0.01,WeatherDisplay:10.37,2013-12-13 20:24:00,
2013-12-13 15:29:00,31.5,15.4,30.01,West,270,0.5,4.6,51,0.00,CLR,,0.01,WeatherDisplay:10.37,2013-12-13 20:29:00,
2013-12-13 15:34:00,31.3,15.7,30.01,SW,225,0.2,1.2,52,0.00,CLR,,0.01,WeatherDisplay:10.37,2013-12-13 20:34:00,
2013-12-13 15:39:00,31.3,15.7,30.01,WNW,292,0.0,0.0,52,0.00,CLR,,0.01,WeatherDisplay:10.37,2013-12-13 20:39:00,
2013-12-13 15:44:00,31.1,15.5,30.02,West,270,0.2,2.3,52,0.00,CLR,,0.01,WeatherDisplay:10.37,2013-12-13 20:44:00,
2013-12-13 15:49:00,30.9,15.8,30.02,WNW,292,0.2,1.2,53,0.00,CLR,,0.01,WeatherDisplay:10.37,2013-12-13 20:49:00,
2013-12-13 15:54:00,30.7,15.6,30.03,WSW,248,0.0,1.2,53,0.00,CLR,,0.01,WeatherDisplay:10.37,2013-12-13 20:54:00,
2013-12-13 15:59:00,30.7,16.0,30.03,WNW,292,0.5,0.5,54,0.00,CLR,,0.01,WeatherDisplay:10.37,2013-12-13 20:59:00,
2013-12-13 16:04:00,30.6,15.9,30.03,NW,315,0.5,0.5,54,0.00,CLR,,0.01,WeatherDisplay:10.37,2013-12-13 21:04:00,
2013-12-13 16:09:00,30.4,16.1,30.04,West,270,0.0,0.0,55,0.00,CLR,,0.01,WeatherDisplay:10.37,2013-12-13 21:09:00,
2013-12-13 16:14:00,30.2,16.0,30.04,West,270,0.0,0.0,55,0.00,CLR,,0.01,WeatherDisplay:10.37,2013-12-13 21:14:00,
2013-12-13 16:19:00,29.8,15.6,30.04,West,270,0.0,0.0,55,0.00,CLR,,0.01,WeatherDisplay:10.37,2013-12-13 21:19:00,
2013-12-13 16:24:00,29.8,15.6,30.05,South,180,1.4,1.4,55,0.00,CLR,,0.01,WeatherDisplay:10.37,2013-12-13 21:24:00,
2013-12-13 16:29:00,29.5,15.7,30.05,SSW,202,1.4,1.4,56,0.00,CLR,,0.01,WeatherDisplay:10.37,2013-12-13 21:29:00,
2013-12-13 16:34:00,29.5,15.7,30.05,West,270,0.0,0.0,56,0.00,CLR,,0.01,WeatherDisplay:10.37,2013-12-13 21:34:00,
2013-12-13 16:39:00,29.3,15.9,30.06,WNW,292,0.5,1.2,57,0.00,CLR,,0.01,WeatherDisplay:10.37,2013-12-13 21:39:00,
2013-12-13 16:44:00,29.1,15.8,30.06,NE,45,0.0,0.0,57,0.00,CLR,,0.01,WeatherDisplay:10.37,2013-12-13 21:44:00,
2013-12-13 16:49:00,29.1,15.8,30.06,NE,45,0.0,0.0,57,0.00,CLR,,0.01,WeatherDisplay:10.37,2013-12-13 21:49:00,
2013-12-13 16:54:00,28.8,15.8,30.06,West,270,0.0,0.0,58,0.00,CLR,,0.01,WeatherDisplay:10.37,2013-12-13 21:54:00,
2013-12-13 16:59:00,28.6,15.7,30.07,West,270,0.0,0.0,58,0.00,CLR,,0.01,WeatherDisplay:10.37,2013-12-13 21:59:00,
2013-12-13 17:04:00,28.4,15.5,30.07,NW,315,0.5,0.5,58,0.00,CLR,,0.01,WeatherDisplay:10.37,2013-12-13 22:04:00,
2013-12-13 17:09:00,28.0,15.2,30.07,West,270,0.0,0.0,58,0.00,CLR,,0.01,WeatherDisplay:10.37,2013-12-13 22:09:00,
2013-12-13 17:14:00,27.7,15.2,30.07,WNW,292,0.0,0.0,59,0.00,CLR,,0.01,WeatherDisplay:10.37,2013-12-13 22:14:00,
2013-12-13 17:19:00,27.7,15.2,30.07,WNW,292,0.0,0.0,59,0.00,CLR,,0.01,WeatherDisplay:10.37,2013-12-13 22:19:00,
2013-12-13 17:24:00,27.5,15.4,30.08,WNW,292,0.0,0.0,60,0.00,CLR,,0.01,WeatherDisplay:10.37,2013-12-13 22:24:00,
2013-12-13 17:29:00,27.3,15.2,30.08,SSW,202,0.0,0.0,60,0.00,CLR,,0.01,WeatherDisplay:10.37,2013-12-13 22:29:00,
2013-12-13 17:34:00,27.1,15.5,30.08,SSW,202,0.0,0.0,61,0.00,CLR,,0.01,WeatherDisplay:10.37,2013-12-13 22:34:00,
2013-12-13 17:39:00,27.0,15.3,30.08,SSW,202,0.0,0.0,61,0.00,CLR,,0.01,WeatherDisplay:10.37,2013-12-13 22:39:00,
2013-12-13 17:44:00,27.0,15.3,30.09,SSW,202,0.0,0.0,61,0.00,CLR,,0.01,WeatherDisplay:10.37,2013-12-13 22:44:00,
2013-12-13 17:49:00,27.0,15.7,30.09,SSW,202,0.0,0.0,62,0.00,CLR,,0.01,WeatherDisplay:10.37,2013-12-13 22:49:00,
2013-12-13 17:54:00,26.8,15.5,30.09,SSW,202,0.0,0.0,62,0.00,CLR,,0.01,WeatherDisplay:10.37,2013-12-13 22:54:00,
2013-12-13 17:59:00,26.6,15.3,30.10,SSW,202,0.0,0.0,62,0.00,CLR,,0.01,WeatherDisplay:10.37,2013-12-13 22:59:00,
2013-12-13 18:04:00,26.4,15.2,30.10,SSW,202,0.0,0.0,62,0.00,CLR,,0.01,WeatherDisplay:10.37,2013-12-13 23:04:00,
2013-12-13 18:09:00,26.2,15.0,30.10,SSW,202,0.0,0.0,62,0.00,CLR,,0.01,WeatherDisplay:10.37,2013-12-13 23:09:00,
2013-12-13 18:14:00,26.2,15.0,30.11,SSW,202,0.7,0.7,62,0.00,CLR,,0.01,WeatherDisplay:10.37,2013-12-13 23:14:00,
2013-12-13 18:19:00,26.1,14.8,30.11,SSW,202,0.0,0.0,62,0.00,CLR,,0.01,WeatherDisplay:10.37,2013-12-13 23:19:00,
2013-12-13 18:24:00,25.9,14.6,30.11,SSW,202,0.0,0.0,62,0.00,CLR,,0.01,WeatherDisplay:10.37,2013-12-13 23:24:00,
2013-12-13 18:29:00,25.7,14.5,30.11,SSW,202,0.0,0.0,62,0.00,CLR,,0.01,WeatherDisplay:10.37,2013-12-13 23:29:00,
2013-12-13 18:34:00,25.5,14.7,30.12,SSW,202,0.0,0.0,63,0.00,CLR,,0.01,WeatherDisplay:10.37,2013-12-13 23:34:00,
2013-12-13 18:39:00,25.5,14.7,30.12,SSW,202,0.0,0.0,63,0.00,CLR,,0.01,WeatherDisplay:10.37,2013-12-13 23:39:00,
2013-12-13 18:44:00,25.3,14.9,30.12,SSW,202,0.0,0.0,64,0.00,CLR,,0.01,WeatherDisplay:10.37,2013-12-13 23:44:00,
2013-12-13 18:49:00,25.3,14.9,30.13,SSW,202,0.0,0.0,64,0.00,CLR,,0.01,WeatherDisplay:10.37,2013-12-13 23:49:00,
2013-12-13 18:54:00,25.2,14.7,30.13,SSW,202,0.0,0.0,64,0.00,CLR,,0.01,WeatherDisplay:10.37,2013-12-13 23:54:00,
2013-12-13 18:59:00,25.0,14.5,30.13,SSW,202,0.0,0.0,64,0.00,CLR,,0.01,WeatherDisplay:10.37,2013-12-13 23:59:00,
2013-12-13 19:04:00,25.0,14.9,30.14,SSW,202,0.0,0.0,65,0.00,CLR,,0.01,WeatherDisplay:10.37,2013-12-14 00:04:00,
2013-12-13 19:09:00,24.8,14.7,30.14,SSW,202,0.0,0.0,65,0.00,CLR,,0.01,WeatherDisplay:10.37,2013-12-14 00:09:00,
2013-12-13 19:14:00,24.8,14.7,30.15,SSW,202,0.0,0.0,65,0.00,CLR,,0.01,WeatherDisplay:10.37,2013-12-14 00:14:00,
2013-12-13 19:19:00,24.6,14.5,30.15,SSW,202,0.0,0.0,65,0.00,CLR,,0.01,WeatherDisplay:10.37,2013-12-14 00:19:00,
2013-12-13 19:24:00,24.4,14.7,30.15,SSW,202,0.0,0.0,66,0.00,CLR,,0.01,WeatherDisplay:10.37,2013-12-14 00:24:00,
2013-12-13 19:29:00,24.3,14.5,30.16,SSW,202,0.0,0.0,66,0.00,CLR,,0.01,WeatherDisplay:10.37,2013-12-14 00:29:00,
2013-12-13 19:34:00,24.1,14.4,30.16,SSW,202,0.0,0.0,66,0.00,CLR,,0.01,WeatherDisplay:10.37,2013-12-14 00:34:00,
2013-12-13 19:39:00,24.1,14.4,30.16,SSW,202,0.0,0.0,66,0.00,CLR,,0.01,WeatherDisplay:10.37,2013-12-14 00:39:00,
2013-12-13 19:44:00,23.9,14.5,30.16,SSW,202,0.0,0.0,67,0.00,CLR,,0.01,WeatherDisplay:10.37,2013-12-14 00:44:00,
2013-12-13 19:49:00,23.9,14.5,30.16,SSW,202,0.0,0.0,67,0.00,CLR,,0.01,WeatherDisplay:10.37,2013-12-14 00:49:00,
2013-12-13 19:54:00,23.5,14.2,30.16,SSW,202,0.0,0.0,67,0.00,CLR,,0.01,WeatherDisplay:10.37,2013-12-14 00:54:00,
2013-12-13 19:59:00,23.5,14.5,30.16,SSW,202,0.0,0.0,68,0.00,CLR,,0.01,WeatherDisplay:10.37,2013-12-14 00:59:00,
2013-12-13 20:04:00,23.4,14.4,30.17,SSW,202,0.0,0.0,68,0.00,CLR,,0.01,WeatherDisplay:10.37,2013-12-14 01:04:00,
2013-12-13 20:09:00,23.4,14.7,30.17,SSW,202,0.0,0.0,69,0.00,CLR,,0.01,WeatherDisplay:10.37,2013-12-14 01:09:00,
2013-12-13 20:13:00,23.2,14.5,30.17,SSW,202,0.0,0.0,69,0.00,CLR,,0.01,WeatherDisplay:10.37,2013-12-14 01:13:00,
2013-12-13 20:18:00,23.2,14.2,30.18,SSW,202,0.0,0.0,68,0.00,CLR,,0.01,WeatherDisplay:10.37,2013-12-14 01:18:00,
2013-12-13 20:23:00,23.0,14.0,30.18,SSW,202,0.0,0.0,68,0.00,CLR,,0.01,WeatherDisplay:10.37,2013-12-14 01:23:00,
2013-12-13 20:28:00,22.8,14.2,30.18,SSW,202,0.0,0.0,69,0.00,CLR,,0.01,WeatherDisplay:10.37,2013-12-14 01:28:00,
2013-12-13 20:33:00,22.6,14.0,30.18,SSW,202,0.0,0.0,69,0.00,CLR,,0.01,WeatherDisplay:10.37,2013-12-14 01:33:00,
2013-12-13 20:38:00,22.6,14.0,30.18,SSW,202,0.0,0.0,69,0.00,CLR,,0.01,WeatherDisplay:10.37,2013-12-14 01:38:00,
2013-12-13 20:43:00,22.6,14.0,30.19,SSW,202,0.0,0.0,69,0.00,CLR,,0.01,WeatherDisplay:10.37,2013-12-14 01:43:00,
2013-12-13 20:48:00,22.3,13.6,30.19,SSW,202,0.0,0.0,69,0.00,CLR,,0.01,WeatherDisplay:10.37,2013-12-14 01:48:00,
2013-12-13 20:53:00,22.3,14.0,30.19,SSW,202,0.0,0.0,70,0.00,CLR,,0.01,WeatherDisplay:10.37,2013-12-14 01:53:00,
2013-12-13 20:58:00,22.3,14.0,30.19,SSW,202,0.0,0.0,70,0.00,CLR,,0.01,WeatherDisplay:10.37,2013-12-14 01:58:00,
2013-12-13 21:03:00,22.3,14.0,30.20,SSW,202,0.0,0.0,70,0.00,CLR,,0.01,WeatherDisplay:10.37,2013-12-14 02:03:00,
2013-12-13 21:08:00,22.3,14.0,30.19,SSW,202,0.0,0.0,70,0.00,CLR,,0.01,WeatherDisplay:10.37,2013-12-14 02:08:00,
2013-12-13 21:13:00,22.3,14.3,30.20,SSW,202,0.0,0.0,71,0.00,CLR,,0.01,WeatherDisplay:10.37,2013-12-14 02:13:00,
2013-12-13 21:18:00,22.3,14.3,30.20,SSW,202,0.0,0.0,71,0.00,CLR,,0.01,WeatherDisplay:10.37,2013-12-14 02:18:00,
2013-12-13 21:23:00,22.1,14.1,30.20,SSW,202,0.0,0.0,71,0.00,CLR,,0.01,WeatherDisplay:10.37,2013-12-14 02:23:00,
2013-12-13 21:28:00,22.1,14.4,30.21,SSW,202,0.0,0.0,72,0.00,CLR,,0.01,WeatherDisplay:10.37,2013-12-14 02:28:00,
2013-12-13 21:33:00,22.1,14.4,30.21,SSW,202,0.0,0.0,72,0.00,CLR,,0.01,WeatherDisplay:10.37,2013-12-14 02:33:00,
2013-12-13 21:38:00,21.9,14.3,30.21,SSW,202,0.0,0.0,72,0.00,CLR,,0.01,WeatherDisplay:10.37,2013-12-14 02:38:00,
2013-12-13 21:43:00,21.9,14.3,30.21,SSW,202,0.0,0.0,72,0.00,CLR,,0.01,WeatherDisplay:10.37,2013-12-14 02:43:00,
2013-12-13 21:48:00,21.9,14.3,30.21,North,0,0.0,0.0,72,0.00,CLR,,0.01,WeatherDisplay:10.37,2013-12-14 02:48:00,
2013-12-13 21:53:00,21.9,14.3,30.21,NNE,22,0.0,0.0,72,0.00,CLR,,0.01,WeatherDisplay:10.37,2013-12-14 02:53:00,
2013-12-13 21:58:00,21.7,14.1,30.21,NNE,22,0.0,0.0,72,0.00,CLR,,0.01,WeatherDisplay:10.37,2013-12-14 02:58:00,
2013-12-13 22:03:00,21.7,14.1,30.22,NNW,338,0.0,0.0,72,0.00,CLR,,0.01,WeatherDisplay:10.37,2013-12-14 03:03:00,
2013-12-13 22:08:00,21.9,14.6,30.22,NNW,338,0.2,0.2,73,0.00,CLR,,0.01,WeatherDisplay:10.37,2013-12-14 03:08:00,
2013-12-13 22:13:00,21.9,14.6,30.22,NNW,338,0.0,0.0,73,0.00,CLR,,0.01,WeatherDisplay:10.37,2013-12-14 03:13:00,
2013-12-13 22:18:00,21.9,14.6,30.22,NW,315,0.0,0.0,73,0.00,CLR,,0.01,WeatherDisplay:10.37,2013-12-14 03:18:00,
2013-12-13 22:23:00,21.9,14.6,30.22,NNW,338,0.2,1.2,73,0.00,CLR,,0.01,WeatherDisplay:10.37,2013-12-14 03:23:00,
2013-12-13 22:28:00,21.9,14.6,30.23,NNW,338,0.5,1.2,73,0.00,CLR,,0.01,WeatherDisplay:10.37,2013-12-14 03:28:00,
2013-12-13 22:33:00,22.1,15.1,30.23,NNW,338,2.0,2.3,74,0.00,CLR,,0.01,WeatherDisplay:10.37,2013-12-14 03:33:00,
2013-12-13 22:38:00,22.3,15.2,30.23,NNW,338,0.9,1.2,74,0.00,CLR,,0.01,WeatherDisplay:10.37,2013-12-14 03:38:00,
2013-12-13 22:43:00,22.5,15.4,30.23,NNE,22,2.4,2.4,74,0.00,CLR,,0.01,WeatherDisplay:10.37,2013-12-14 03:43:00,
2013-12-13 22:48:00,22.6,15.6,30.23,West,270,0.0,1.2,74,0.00,CLR,,0.01,WeatherDisplay:10.37,2013-12-14 03:48:00,
2013-12-13 22:53:00,22.8,15.8,30.24,North,0,0.0,0.0,74,0.00,CLR,,0.01,WeatherDisplay:10.37,2013-12-14 03:53:00,
2013-12-13 22:58:00,23.0,15.9,30.24,SW,225,0.0,0.0,74,0.00,CLR,,0.01,WeatherDisplay:10.37,2013-12-14 03:58:00,
2013-12-13 23:03:00,23.2,16.1,30.24,SW,225,0.0,0.0,74,0.00,CLR,,0.01,WeatherDisplay:10.37,2013-12-14 04:03:00,
2013-12-13 23:08:00,23.4,16.0,30.25,NNW,338,0.0,0.0,73,0.00,CLR,,0.01,WeatherDisplay:10.37,2013-12-14 04:08:00,
2013-12-13 23:13:00,23.4,16.0,30.25,NW,315,0.2,0.2,73,0.00,CLR,,0.01,WeatherDisplay:10.37,2013-12-14 04:13:00,
2013-12-13 23:18:00,23.5,16.2,30.25,West,270,0.0,0.0,73,0.00,CLR,,0.01,WeatherDisplay:10.37,2013-12-14 04:18:00,
2013-12-13 23:23:00,23.7,16.3,30.24,NW,315,1.2,1.2,73,0.00,CLR,,0.01,WeatherDisplay:10.37,2013-12-14 04:23:00,
2013-12-13 23:28:00,23.7,16.3,30.25,NNW,338,0.0,1.2,73,0.00,CLR,,0.01,WeatherDisplay:10.37,2013-12-14 04:28:00,
2013-12-13 23:33:00,23.7,16.3,30.25,North,0,1.2,1.2,73,0.00,CLR,,0.01,WeatherDisplay:10.37,2013-12-14 04:33:00,
2013-12-13 23:38:00,23.7,16.3,30.25,North,0,1.2,1.2,73,0.00,CLR,,0.01,WeatherDisplay:10.37,2013-12-14 04:38:00,
2013-12-13 23:43:00,23.7,16.3,30.25,North,0,1.2,1.2,73,0.00,CLR,,0.01,WeatherDisplay:10.37,2013-12-14 04:43:00,
2013-12-13 23:48:00,23.7,16.3,30.25,North,0,1.2,1.2,73,0.00,CLR,,0.01,WeatherDisplay:10.37,2013-12-14 04:48:00,
2013-12-13 23:53:00,23.7,16.3,30.25,North,0,1.2,1.2,73,0.00,CLR,,0.01,WeatherDisplay:10.37,2013-12-14 04:53:00,
2013-12-13 23:58:00,23.7,16.3,30.25,North,0,1.2,1.2,73,0.00,CLR,,0.01,WeatherDisplay:10.37,2013-12-14 04:58:00,